sensor_id;sensor_type;location;lat;lon;timestamp;pressure;altitude;pressure_sealevel;temperature;humidity
38225;BME280;24025;48.138;11.428;2023-10-09T00:01:36;96220.28;;;14.29;74.89
38225;BME280;24025;48.138;11.428;2023-10-09T00:04:10;96216.03;;;14.24;74.97
38225;BME280;24025;48.138;11.428;2023-10-09T00:06:43;96221.03;;;14.26;74.76
38225;BME280;24025;48.138;11.428;2023-10-09T00:09:15;96220.97;;;14.22;75.11
38225;BME280;24025;48.138;11.428;2023-10-09T00:11:55;96226.00;;;14.24;74.97
38225;BME280;24025;48.138;11.428;2023-10-09T00:14:31;96215.28;;;14.24;74.92
38225;BME280;24025;48.138;11.428;2023-10-09T00:17:05;96211.41;;;14.21;74.80
38225;BME280;24025;48.138;11.428;2023-10-09T00:19:57;96213.31;;;14.21;75.23
38225;BME280;24025;48.138;11.428;2023-10-09T00:22:32;96203.34;;;14.21;74.91
38225;BME280;24025;48.138;11.428;2023-10-09T00:25:09;96194.53;;;14.21;75.12
38225;BME280;24025;48.138;11.428;2023-10-09T00:27:44;96189.22;;;14.24;74.68
38225;BME280;24025;48.138;11.428;2023-10-09T00:30:17;96190.00;;;14.28;72.97
38225;BME280;24025;48.138;11.428;2023-10-09T00:32:50;96181.19;;;14.28;72.04
38225;BME280;24025;48.138;11.428;2023-10-09T00:35:25;96171.69;;;14.37;72.11
38225;BME280;24025;48.138;11.428;2023-10-09T00:38:15;96165.94;;;14.39;71.71
38225;BME280;24025;48.138;11.428;2023-10-09T00:40:52;96162.47;;;14.35;73.09
38225;BME280;24025;48.138;11.428;2023-10-09T00:43:44;96169.38;;;14.32;73.21
38225;BME280;24025;48.138;11.428;2023-10-09T00:46:16;96164.34;;;14.31;73.66
38225;BME280;24025;48.138;11.428;2023-10-09T00:48:55;96153.63;;;14.31;73.02
38225;BME280;24025;48.138;11.428;2023-10-09T00:51:28;96152.13;;;14.37;72.39
38225;BME280;24025;48.138;11.428;2023-10-09T00:54:06;96149.47;;;14.37;72.21
38225;BME280;24025;48.138;11.428;2023-10-09T00:56:40;96150.59;;;14.32;72.99
38225;BME280;24025;48.138;11.428;2023-10-09T00:59:15;96141.44;;;14.40;72.48
38225;BME280;24025;48.138;11.428;2023-10-09T01:01:47;96144.16;;;14.44;72.10
38225;BME280;24025;48.138;11.428;2023-10-09T01:04:30;96143.38;;;14.43;72.48
38225;BME280;24025;48.138;11.428;2023-10-09T01:07:08;96135.34;;;14.43;72.41
38225;BME280;24025;48.138;11.428;2023-10-09T01:09:46;96134.56;;;14.43;72.80
38225;BME280;24025;48.138;11.428;2023-10-09T01:12:21;96135.28;;;14.40;72.82
38225;BME280;24025;48.138;11.428;2023-10-09T01:14:52;96123.78;;;14.36;72.93
38225;BME280;24025;48.138;11.428;2023-10-09T01:17:26;96126.78;;;14.31;72.76
38225;BME280;24025;48.138;11.428;2023-10-09T01:20:08;96119.50;;;14.28;73.09
38225;BME280;24025;48.138;11.428;2023-10-09T01:22:48;96126.75;;;14.24;72.88
38225;BME280;24025;48.138;11.428;2023-10-09T01:25:24;96123.66;;;14.22;73.04
38225;BME280;24025;48.138;11.428;2023-10-09T01:27:55;96125.56;;;14.21;73.20
38225;BME280;24025;48.138;11.428;2023-10-09T01:30:28;96120.56;;;14.20;73.15
38225;BME280;24025;48.138;11.428;2023-10-09T01:32:59;96116.69;;;14.13;73.28
38225;BME280;24025;48.138;11.428;2023-10-09T01:35:43;96115.13;;;14.12;73.51
38225;BME280;24025;48.138;11.428;2023-10-09T01:38:19;96114.38;;;14.12;73.47
38225;BME280;24025;48.138;11.428;2023-10-09T01:41:01;96107.47;;;14.11;73.82
38225;BME280;24025;48.138;11.428;2023-10-09T01:43:39;96112.81;;;14.07;74.01
38225;BME280;24025;48.138;11.428;2023-10-09T01:46:15;96116.66;;;14.10;73.40
38225;BME280;24025;48.138;11.428;2023-10-09T01:48:51;96114.34;;;14.08;73.57
38225;BME280;24025;48.138;11.428;2023-10-09T01:51:25;96106.69;;;14.10;73.55
38225;BME280;24025;48.138;11.428;2023-10-09T01:53:56;96102.47;;;14.09;73.89
38225;BME280;24025;48.138;11.428;2023-10-09T01:56:30;96097.50;;;14.08;73.74
38225;BME280;24025;48.138;11.428;2023-10-09T01:59:02;96102.81;;;14.04;74.10
38225;BME280;24025;48.138;11.428;2023-10-09T02:01:37;96095.19;;;14.06;73.95
38225;BME280;24025;48.138;11.428;2023-10-09T02:04:19;96089.41;;;14.04;74.17
38225;BME280;24025;48.138;11.428;2023-10-09T02:06:52;96087.50;;;14.05;74.51
38225;BME280;24025;48.138;11.428;2023-10-09T02:09:24;96082.16;;;14.05;74.73
38225;BME280;24025;48.138;11.428;2023-10-09T02:12:02;96082.91;;;14.05;74.37
38225;BME280;24025;48.138;11.428;2023-10-09T02:14:33;96076.78;;;14.05;74.83
38225;BME280;24025;48.138;11.428;2023-10-09T02:17:12;96078.28;;;14.02;74.83
38225;BME280;24025;48.138;11.428;2023-10-09T02:19:57;96075.97;;;14.01;74.83
38225;BME280;24025;48.138;11.428;2023-10-09T02:22:31;96067.56;;;14.02;74.90
38225;BME280;24025;48.138;11.428;2023-10-09T02:25:05;96066.00;;;14.01;74.97
38225;BME280;24025;48.138;11.428;2023-10-09T02:27:39;96072.91;;;13.99;74.81
38225;BME280;24025;48.138;11.428;2023-10-09T02:30:18;96069.81;;;13.97;75.01
38225;BME280;24025;48.138;11.428;2023-10-09T02:33:00;96063.25;;;13.94;74.88
38225;BME280;24025;48.138;11.428;2023-10-09T02:35:40;96066.75;;;13.98;74.79
38225;BME280;24025;48.138;11.428;2023-10-09T02:38:14;96070.16;;;13.95;74.68
38225;BME280;24025;48.138;11.428;2023-10-09T02:40:51;96067.47;;;13.92;75.05
38225;BME280;24025;48.138;11.428;2023-10-09T02:43:32;96066.69;;;13.91;74.96
38225;BME280;24025;48.138;11.428;2023-10-09T02:46:22;96068.97;;;13.89;74.75
38225;BME280;24025;48.138;11.428;2023-10-09T02:49:02;96060.19;;;13.92;74.90
38225;BME280;24025;48.138;11.428;2023-10-09T02:51:47;96051.69;;;13.86;74.95
38225;BME280;24025;48.138;11.428;2023-10-09T02:54:24;96063.56;;;13.85;75.10
38225;BME280;24025;48.138;11.428;2023-10-09T02:56:55;96053.22;;;13.84;75.25
38225;BME280;24025;48.138;11.428;2023-10-09T02:59:29;96051.66;;;13.79;75.27
38225;BME280;24025;48.138;11.428;2023-10-09T03:02:01;96043.97;;;13.78;75.57
38225;BME280;24025;48.138;11.428;2023-10-09T03:04:33;96044.72;;;13.75;75.52
38225;BME280;24025;48.138;11.428;2023-10-09T03:07:04;96048.94;;;13.76;75.51
38225;BME280;24025;48.138;11.428;2023-10-09T03:09:37;96038.97;;;13.76;75.26
38225;BME280;24025;48.138;11.428;2023-10-09T03:12:11;96046.66;;;13.78;75.38
38225;BME280;24025;48.138;11.428;2023-10-09T03:14:44;96045.53;;;13.79;75.19
38225;BME280;24025;48.138;11.428;2023-10-09T03:17:16;96048.22;;;13.79;75.03
38225;BME280;24025;48.138;11.428;2023-10-09T03:19:49;96038.22;;;13.76;75.08
38225;BME280;24025;48.138;11.428;2023-10-09T03:22:20;96045.94;;;13.81;75.05
38225;BME280;24025;48.138;11.428;2023-10-09T03:24:52;96036.69;;;13.75;75.14
38225;BME280;24025;48.138;11.428;2023-10-09T03:27:24;96031.38;;;13.78;75.19
38225;BME280;24025;48.138;11.428;2023-10-09T03:29:56;96034.44;;;13.80;75.08
38225;BME280;24025;48.138;11.428;2023-10-09T03:32:29;96024.03;;;13.75;75.20
38225;BME280;24025;48.138;11.428;2023-10-09T03:35:00;96025.19;;;13.74;75.25
38225;BME280;24025;48.138;11.428;2023-10-09T03:37:34;96023.66;;;13.73;74.97
38225;BME280;24025;48.138;11.428;2023-10-09T03:40:06;96020.59;;;13.75;74.96
38225;BME280;24025;48.138;11.428;2023-10-09T03:42:39;96019.06;;;13.74;75.03
38225;BME280;24025;48.138;11.428;2023-10-09T03:45:13;96018.28;;;13.70;75.14
38225;BME280;24025;48.138;11.428;2023-10-09T03:47:52;96014.78;;;13.69;74.83
38225;BME280;24025;48.138;11.428;2023-10-09T03:50:29;96025.88;;;13.68;75.13
38225;BME280;24025;48.138;11.428;2023-10-09T03:53:09;96024.72;;;13.65;75.41
38225;BME280;24025;48.138;11.428;2023-10-09T03:55:43;96014.38;;;13.64;75.21
38225;BME280;24025;48.138;11.428;2023-10-09T03:58:15;96018.91;;;13.59;75.15
38225;BME280;24025;48.138;11.428;2023-10-09T04:00:50;96015.06;;;13.57;75.36
38225;BME280;24025;48.138;11.428;2023-10-09T04:03:23;96015.84;;;13.57;75.49
38225;BME280;24025;48.138;11.428;2023-10-09T04:05:56;96013.53;;;13.52;75.71
38225;BME280;24025;48.138;11.428;2023-10-09T04:08:28;96012.00;;;13.55;75.21
38225;BME280;24025;48.138;11.428;2023-10-09T04:11:04;96017.00;;;13.56;75.05
38225;BME280;24025;48.138;11.428;2023-10-09T04:13:47;96014.69;;;13.55;75.16
38225;BME280;24025;48.138;11.428;2023-10-09T04:16:19;96024.56;;;13.47;75.38
38225;BME280;24025;48.138;11.428;2023-10-09T04:19:06;96025.34;;;13.51;75.13
38225;BME280;24025;48.138;11.428;2023-10-09T04:21:43;96023.03;;;13.50;75.13
38225;BME280;24025;48.138;11.428;2023-10-09T04:24:14;96021.91;;;13.51;74.99
38225;BME280;24025;48.138;11.428;2023-10-09T04:26:46;96013.47;;;13.49;75.14
38225;BME280;24025;48.138;11.428;2023-10-09T04:29:18;96021.88;;;13.47;75.54
38225;BME280;24025;48.138;11.428;2023-10-09T04:32:12;96007.34;;;13.48;75.53
38225;BME280;24025;48.138;11.428;2023-10-09T04:34:49;96008.09;;;13.49;75.48
38225;BME280;24025;48.138;11.428;2023-10-09T04:37:27;96009.28;;;13.51;75.79
38225;BME280;24025;48.138;11.428;2023-10-09T04:40:11;96008.16;;;13.52;75.61
38225;BME280;24025;48.138;11.428;2023-10-09T04:43:03;96004.72;;;13.52;75.93
38225;BME280;24025;48.138;11.428;2023-10-09T04:45:37;96015.44;;;13.52;75.97
38225;BME280;24025;48.138;11.428;2023-10-09T04:48:15;96008.16;;;13.52;75.91
38225;BME280;24025;48.138;11.428;2023-10-09T04:51:04;95999.69;;;13.50;76.12
38225;BME280;24025;48.138;11.428;2023-10-09T04:53:52;96000.06;;;13.49;76.35
38225;BME280;24025;48.138;11.428;2023-10-09T04:56:44;96003.53;;;13.49;75.91
38225;BME280;24025;48.138;11.428;2023-10-09T04:59:24;96004.34;;;13.53;75.89
38225;BME280;24025;48.138;11.428;2023-10-09T05:01:56;96007.03;;;13.53;76.10
38225;BME280;24025;48.138;11.428;2023-10-09T05:04:35;96005.47;;;13.52;76.02
38225;BME280;24025;48.138;11.428;2023-10-09T05:07:10;96015.81;;;13.54;75.98
38225;BME280;24025;48.138;11.428;2023-10-09T05:10:07;96009.69;;;13.53;76.06
38225;BME280;24025;48.138;11.428;2023-10-09T05:12:55;96012.78;;;13.55;75.89
38225;BME280;24025;48.138;11.428;2023-10-09T05:15:30;96014.28;;;13.53;76.25
38225;BME280;24025;48.138;11.428;2023-10-09T05:18:05;96007.03;;;13.53;76.44
38225;BME280;24025;48.138;11.428;2023-10-09T05:20:41;96021.91;;;13.51;76.28
38225;BME280;24025;48.138;11.428;2023-10-09T05:23:37;96020.75;;;13.48;76.59
38225;BME280;24025;48.138;11.428;2023-10-09T05:26:15;96021.50;;;13.49;75.94
38225;BME280;24025;48.138;11.428;2023-10-09T05:29:05;96028.00;;;13.48;76.23
38225;BME280;24025;48.138;11.428;2023-10-09T05:32:02;96029.13;;;13.43;76.60
38225;BME280;24025;48.138;11.428;2023-10-09T05:34:47;96032.50;;;13.37;76.87
38225;BME280;24025;48.138;11.428;2023-10-09T05:37:31;96036.72;;;13.38;77.03
38225;BME280;24025;48.138;11.428;2023-10-09T05:40:06;96047.41;;;13.34;77.25
38225;BME280;24025;48.138;11.428;2023-10-09T05:42:46;96049.66;;;13.32;77.39
38225;BME280;24025;48.138;11.428;2023-10-09T05:45:29;96053.09;;;13.32;77.29
38225;BME280;24025;48.138;11.428;2023-10-09T05:48:26;96041.22;;;13.30;77.15
38225;BME280;24025;48.138;11.428;2023-10-09T05:51:10;96046.25;;;13.35;77.28
38225;BME280;24025;48.138;11.428;2023-10-09T05:53:43;96047.75;;;13.32;77.36
38225;BME280;24025;48.138;11.428;2023-10-09T05:56:15;96042.38;;;13.32;77.78
38225;BME280;24025;48.138;11.428;2023-10-09T05:59:05;96043.97;;;13.37;76.97
38225;BME280;24025;48.138;11.428;2023-10-09T06:01:55;96037.94;;;13.44;76.93
38225;BME280;24025;48.138;11.428;2023-10-09T06:04:38;96036.41;;;13.46;76.69
38225;BME280;24025;48.138;11.428;2023-10-09T06:07:26;96035.66;;;13.49;76.20
38225;BME280;24025;48.138;11.428;2023-10-09T06:10:20;96038.44;;;13.56;76.94
38225;BME280;24025;48.138;11.428;2023-10-09T06:13:08;96036.59;;;13.64;77.31
38225;BME280;24025;48.138;11.428;2023-10-09T06:16:00;96044.25;;;13.66;77.50
38225;BME280;24025;48.138;11.428;2023-10-09T06:18:50;96045.13;;;13.77;77.73
38225;BME280;24025;48.138;11.428;2023-10-09T06:21:25;96047.84;;;13.80;78.38
38225;BME280;24025;48.138;11.428;2023-10-09T06:24:15;96048.69;;;13.88;78.13
38225;BME280;24025;48.138;11.428;2023-10-09T06:26:48;96043.34;;;13.95;77.71
38225;BME280;24025;48.138;11.428;2023-10-09T06:29:42;96048.84;;;14.09;77.72
38225;BME280;24025;48.138;11.428;2023-10-09T06:32:20;96044.69;;;14.19;77.92
38225;BME280;24025;48.138;11.428;2023-10-09T06:34:58;96048.19;;;14.27;77.39
38225;BME280;24025;48.138;11.428;2023-10-09T06:38:14;96051.75;;;14.41;77.56
38225;BME280;24025;48.138;11.428;2023-10-09T06:41:04;96048.78;;;14.50;77.59
38225;BME280;24025;48.138;11.428;2023-10-09T06:43:54;96049.59;;;14.58;77.68
38225;BME280;24025;48.138;11.428;2023-10-09T06:46:26;96054.22;;;14.64;77.60
38225;BME280;24025;48.138;11.428;2023-10-09T06:48:57;96053.50;;;14.74;76.88
38225;BME280;24025;48.138;11.428;2023-10-09T06:51:29;96057.75;;;14.83;76.72
38225;BME280;24025;48.138;11.428;2023-10-09T06:54:01;96055.50;;;14.92;76.58
38225;BME280;24025;48.138;11.428;2023-10-09T06:56:38;96055.91;;;14.97;76.00
38225;BME280;24025;48.138;11.428;2023-10-09T06:59:10;96065.16;;;15.07;75.92
38225;BME280;24025;48.138;11.428;2023-10-09T07:01:56;96058.28;;;15.13;76.24
38225;BME280;24025;48.138;11.428;2023-10-09T07:04:46;96061.41;;;15.26;73.19
38225;BME280;24025;48.138;11.428;2023-10-09T07:07:17;96058.72;;;15.37;74.43
38225;BME280;24025;48.138;11.428;2023-10-09T07:09:52;96058.78;;;15.47;75.27
38225;BME280;24025;48.138;11.428;2023-10-09T07:12:42;96062.28;;;15.62;69.95
38225;BME280;24025;48.138;11.428;2023-10-09T07:15:15;96056.16;;;15.72;67.86
38225;BME280;24025;48.138;11.428;2023-10-09T07:18:06;96063.09;;;15.88;66.56
38225;BME280;24025;48.138;11.428;2023-10-09T07:20:50;96063.50;;;16.00;65.42
38225;BME280;24025;48.138;11.428;2023-10-09T07:23:31;96068.88;;;16.11;63.80
38225;BME280;24025;48.138;11.428;2023-10-09T07:26:05;96070.81;;;16.21;63.58
38225;BME280;24025;48.138;11.428;2023-10-09T07:29:08;96070.41;;;16.30;63.01
38225;BME280;24025;48.138;11.428;2023-10-09T07:31:59;96082.69;;;16.41;62.49
38225;BME280;24025;48.138;11.428;2023-10-09T07:34:44;96077.31;;;16.49;61.20
38225;BME280;24025;48.138;11.428;2023-10-09T07:37:27;96080.38;;;16.68;59.19
38225;BME280;24025;48.138;11.428;2023-10-09T07:40:02;96075.34;;;16.88;58.05
38225;BME280;24025;48.138;11.428;2023-10-09T07:42:38;96079.91;;;17.02;57.80
38225;BME280;24025;48.138;11.428;2023-10-09T07:45:10;96079.09;;;17.19;57.19
38225;BME280;24025;48.138;11.428;2023-10-09T07:48:04;96071.69;;;17.41;56.92
38225;BME280;24025;48.138;11.428;2023-10-09T07:50:37;96073.91;;;17.57;56.60
38225;BME280;24025;48.138;11.428;2023-10-09T07:53:12;96071.56;;;17.70;55.09
38225;BME280;24025;48.138;11.428;2023-10-09T07:55:51;96073.78;;;17.82;55.50
38225;BME280;24025;48.138;11.428;2023-10-09T07:58:38;96075.22;;;17.97;54.88
38225;BME280;24025;48.138;11.428;2023-10-09T08:01:19;96086.31;;;18.14;54.34
38225;BME280;24025;48.138;11.428;2023-10-09T08:03:54;96074.25;;;18.25;53.67
38225;BME280;24025;48.138;11.428;2023-10-09T08:06:42;96084.50;;;18.45;53.37
38225;BME280;24025;48.138;11.428;2023-10-09T08:09:34;96084.78;;;18.57;53.52
38225;BME280;24025;48.138;11.428;2023-10-09T08:12:19;96089.75;;;18.66;52.52
38225;BME280;24025;48.138;11.428;2023-10-09T08:15:09;96087.34;;;18.72;53.37
38225;BME280;24025;48.138;11.428;2023-10-09T08:17:56;96088.88;;;18.76;53.43
38225;BME280;24025;48.138;11.428;2023-10-09T08:20:30;96104.22;;;18.86;52.79
38225;BME280;24025;48.138;11.428;2023-10-09T08:23:23;96101.03;;;18.95;52.51
38225;BME280;24025;48.138;11.428;2023-10-09T08:26:12;96100.50;;;19.07;51.26
38225;BME280;24025;48.138;11.428;2023-10-09T08:28:44;96091.41;;;19.24;51.92
38225;BME280;24025;48.138;11.428;2023-10-09T08:31:17;96104.44;;;19.37;50.90
38225;BME280;24025;48.138;11.428;2023-10-09T08:34:17;96091.06;;;19.57;50.83
38225;BME280;24025;48.138;11.428;2023-10-09T08:37:00;96091.19;;;19.76;50.23
38225;BME280;24025;48.138;11.428;2023-10-09T08:39:32;96089.56;;;19.83;49.83
38225;BME280;24025;48.138;11.428;2023-10-09T08:42:06;96092.16;;;19.90;50.13
38225;BME280;24025;48.138;11.428;2023-10-09T08:44:39;96090.50;;;19.96;49.66
38225;BME280;24025;48.138;11.428;2023-10-09T08:47:15;96086.66;;;19.97;49.24
38225;BME280;24025;48.138;11.428;2023-10-09T08:49:47;96088.47;;;20.03;49.75
38225;BME280;24025;48.138;11.428;2023-10-09T08:52:19;96094.59;;;20.07;48.72
38225;BME280;24025;48.138;11.428;2023-10-09T08:54:50;96091.91;;;20.07;48.31
38225;BME280;24025;48.138;11.428;2023-10-09T08:57:21;96104.69;;;20.07;49.42
38225;BME280;24025;48.138;11.428;2023-10-09T08:59:53;96105.78;;;20.09;49.53
38225;BME280;24025;48.138;11.428;2023-10-09T09:02:25;96101.91;;;20.11;49.23
38225;BME280;24025;48.138;11.428;2023-10-09T09:04:56;96098.78;;;20.12;49.06
38225;BME280;24025;48.138;11.428;2023-10-09T09:07:28;96104.09;;;20.19;48.45
38225;BME280;24025;48.138;11.428;2023-10-09T09:10:03;96107.63;;;20.16;48.55
38225;BME280;24025;48.138;11.428;2023-10-09T09:12:48;96103.34;;;20.19;48.92
38225;BME280;24025;48.138;11.428;2023-10-09T09:15:41;96101.22;;;20.30;48.85
38225;BME280;24025;48.138;11.428;2023-10-09T09:18:18;96100.41;;;20.33;48.21
38225;BME280;24025;48.138;11.428;2023-10-09T09:20:49;96104.94;;;20.40;48.48
38225;BME280;24025;48.138;11.428;2023-10-09T09:23:25;96105.84;;;20.33;47.66
38225;BME280;24025;48.138;11.428;2023-10-09T09:25:57;96106.94;;;20.35;47.97
38225;BME280;24025;48.138;11.428;2023-10-09T09:28:30;96103.31;;;20.46;47.82
38225;BME280;24025;48.138;11.428;2023-10-09T09:31:10;96108.13;;;20.58;47.52
38225;BME280;24025;48.138;11.428;2023-10-09T09:33:45;96102.72;;;20.58;47.29
38225;BME280;24025;48.138;11.428;2023-10-09T09:36:19;96106.03;;;20.69;47.65
38225;BME280;24025;48.138;11.428;2023-10-09T09:38:52;96106.44;;;20.68;47.66
38225;BME280;24025;48.138;11.428;2023-10-09T09:41:32;96106.53;;;20.84;46.63
38225;BME280;24025;48.138;11.428;2023-10-09T09:44:05;96109.38;;;20.77;46.64
38225;BME280;24025;48.138;11.428;2023-10-09T09:46:37;96122.88;;;20.80;46.90
38225;BME280;24025;48.138;11.428;2023-10-09T09:49:11;96123.50;;;20.88;46.30
38225;BME280;24025;48.138;11.428;2023-10-09T09:51:50;96115.25;;;20.95;46.19
38225;BME280;24025;48.138;11.428;2023-10-09T09:54:22;96106.19;;;20.82;46.25
38225;BME280;24025;48.138;11.428;2023-10-09T09:56:58;96107.78;;;20.79;46.08
38225;BME280;24025;48.138;11.428;2023-10-09T09:59:31;96123.03;;;20.93;46.26
38225;BME280;24025;48.138;11.428;2023-10-09T10:02:07;96115.09;;;20.82;46.55
38225;BME280;24025;48.138;11.428;2023-10-09T10:04:42;96115.41;;;21.08;46.44
38225;BME280;24025;48.138;11.428;2023-10-09T10:07:15;96109.63;;;21.06;44.85
38225;BME280;24025;48.138;11.428;2023-10-09T10:09:48;96109.69;;;21.02;45.68
38225;BME280;24025;48.138;11.428;2023-10-09T10:12:48;96111.16;;;21.07;45.40
38225;BME280;24025;48.138;11.428;2023-10-09T10:15:56;96117.63;;;21.13;45.27
38225;BME280;24025;48.138;11.428;2023-10-09T10:18:31;96118.84;;;21.32;44.83
38225;BME280;24025;48.138;11.428;2023-10-09T10:23:47;96120.88;;;21.47;43.74
38225;BME280;24025;48.138;11.428;2023-10-09T10:26:22;96108.84;;;21.48;43.56
38225;BME280;24025;48.138;11.428;2023-10-09T10:31:58;96121.75;;;21.61;42.61
38225;BME280;24025;48.138;11.428;2023-10-09T10:34:52;96119.66;;;21.68;42.78
38225;BME280;24025;48.138;11.428;2023-10-09T10:37:37;96113.16;;;21.82;42.10
38225;BME280;24025;48.138;11.428;2023-10-09T10:40:22;96113.19;;;21.98;42.09
38225;BME280;24025;48.138;11.428;2023-10-09T10:43:16;96113.00;;;21.89;40.47
38225;BME280;24025;48.138;11.428;2023-10-09T10:46:05;96099.75;;;21.75;41.52
38225;BME280;24025;48.138;11.428;2023-10-09T10:48:36;96103.47;;;21.81;40.92
38225;BME280;24025;48.138;11.428;2023-10-09T10:51:09;96096.09;;;21.82;40.95
38225;BME280;24025;48.138;11.428;2023-10-09T10:53:52;96106.81;;;21.89;41.53
38225;BME280;24025;48.138;11.428;2023-10-09T10:56:28;96106.81;;;22.05;40.68
38225;BME280;24025;48.138;11.428;2023-10-09T10:59:08;96096.50;;;22.16;39.58
38225;BME280;24025;48.138;11.428;2023-10-09T11:01:43;96097.09;;;22.24;40.08
38225;BME280;24025;48.138;11.428;2023-10-09T11:04:50;96098.13;;;22.46;39.23
38225;BME280;24025;48.138;11.428;2023-10-09T11:07:45;96092.44;;;22.57;39.65
38225;BME280;24025;48.138;11.428;2023-10-09T11:10:21;96093.84;;;22.78;38.38
38225;BME280;24025;48.138;11.428;2023-10-09T11:12:59;96098.13;;;23.08;38.64
38225;BME280;24025;48.138;11.428;2023-10-09T11:15:40;96092.56;;;23.40;37.35
38225;BME280;24025;48.138;11.428;2023-10-09T11:18:18;96088.56;;;23.45;37.01
38225;BME280;24025;48.138;11.428;2023-10-09T11:21:00;96091.34;;;23.70;36.72
38225;BME280;24025;48.138;11.428;2023-10-09T11:23:34;96090.19;;;23.55;37.35
38225;BME280;24025;48.138;11.428;2023-10-09T11:26:07;96082.75;;;23.97;35.85
38225;BME280;24025;48.138;11.428;2023-10-09T11:29:10;96070.00;;;23.94;36.03
38225;BME280;24025;48.138;11.428;2023-10-09T11:32:02;96074.91;;;24.12;35.71
38225;BME280;24025;48.138;11.428;2023-10-09T11:34:36;96089.09;;;23.94;36.10
38225;BME280;24025;48.138;11.428;2023-10-09T11:39:40;96079.03;;;23.91;34.75
38225;BME280;24025;48.138;11.428;2023-10-09T11:42:28;96073.25;;;23.89;34.53
38225;BME280;24025;48.138;11.428;2023-10-09T11:45:19;96075.56;;;23.91;34.82
38225;BME280;24025;48.138;11.428;2023-10-09T11:47:52;96071.19;;;23.68;34.90
38225;BME280;24025;48.138;11.428;2023-10-09T11:51:05;96069.56;;;23.29;35.34
38225;BME280;24025;48.138;11.428;2023-10-09T11:53:41;96077.06;;;22.96;36.51
38225;BME280;24025;48.138;11.428;2023-10-09T11:56:14;96076.03;;;23.06;36.53
38225;BME280;24025;48.138;11.428;2023-10-09T11:58:48;96076.72;;;23.23;36.01
38225;BME280;24025;48.138;11.428;2023-10-09T12:01:23;96087.53;;;23.26;35.23
38225;BME280;24025;48.138;11.428;2023-10-09T12:03:55;96068.44;;;23.13;35.28
38225;BME280;24025;48.138;11.428;2023-10-09T12:06:27;96074.78;;;22.94;36.18
38225;BME280;24025;48.138;11.428;2023-10-09T12:09:05;96066.69;;;23.07;36.38
38225;BME280;24025;48.138;11.428;2023-10-09T12:11:36;96064.00;;;22.91;37.01
38225;BME280;24025;48.138;11.428;2023-10-09T12:16:55;96069.47;;;22.58;36.96
38225;BME280;24025;48.138;11.428;2023-10-09T12:19:26;96074.50;;;22.59;36.71
38225;BME280;24025;48.138;11.428;2023-10-09T12:22:00;96070.94;;;22.46;37.63
38225;BME280;24025;48.138;11.428;2023-10-09T12:24:32;96071.13;;;22.55;37.76
38225;BME280;24025;48.138;11.428;2023-10-09T12:27:04;96069.66;;;22.34;37.62
38225;BME280;24025;48.138;11.428;2023-10-09T12:29:42;96064.16;;;22.22;37.19
38225;BME280;24025;48.138;11.428;2023-10-09T12:32:20;96051.84;;;22.17;38.05
38225;BME280;24025;48.138;11.428;2023-10-09T12:34:52;96059.22;;;22.17;38.01
38225;BME280;24025;48.138;11.428;2023-10-09T12:37:24;96069.31;;;22.00;38.85
38225;BME280;24025;48.138;11.428;2023-10-09T12:39:56;96070.47;;;21.99;38.89
38225;BME280;24025;48.138;11.428;2023-10-09T12:42:28;96070.81;;;21.85;39.51
38225;BME280;24025;48.138;11.428;2023-10-09T12:45:00;96073.69;;;21.77;40.09
38225;BME280;24025;48.138;11.428;2023-10-09T12:47:39;96079.03;;;21.65;39.69
38225;BME280;24025;48.138;11.428;2023-10-09T12:50:14;96086.03;;;21.62;40.03
38225;BME280;24025;48.138;11.428;2023-10-09T12:52:45;96086.38;;;21.64;40.07
38225;BME280;24025;48.138;11.428;2023-10-09T12:55:20;96091.22;;;21.57;40.02
38225;BME280;24025;48.138;11.428;2023-10-09T12:57:52;96075.06;;;21.49;40.19
38225;BME280;24025;48.138;11.428;2023-10-09T13:00:24;96082.94;;;21.44;40.08
38225;BME280;24025;48.138;11.428;2023-10-09T13:02:58;96082.59;;;21.42;40.76
38225;BME280;24025;48.138;11.428;2023-10-09T13:05:36;96077.31;;;21.35;41.28
38225;BME280;24025;48.138;11.428;2023-10-09T13:08:08;96087.91;;;21.29;41.45
38225;BME280;24025;48.138;11.428;2023-10-09T13:10:43;96088.69;;;21.26;41.94
38225;BME280;24025;48.138;11.428;2023-10-09T13:13:14;96081.81;;;21.21;42.07
38225;BME280;24025;48.138;11.428;2023-10-09T13:15:46;96082.22;;;21.20;42.32
38225;BME280;24025;48.138;11.428;2023-10-09T13:18:19;96088.47;;;21.17;42.02
38225;BME280;24025;48.138;11.428;2023-10-09T13:20:50;96075.34;;;21.15;41.99
38225;BME280;24025;48.138;11.428;2023-10-09T13:23:22;96090.31;;;21.24;42.26
38225;BME280;24025;48.138;11.428;2023-10-09T13:25:59;96096.28;;;21.15;42.37
38225;BME280;24025;48.138;11.428;2023-10-09T13:28:57;96096.84;;;21.26;42.22
38225;BME280;24025;48.138;11.428;2023-10-09T13:31:30;96092.97;;;21.27;42.08
38225;BME280;24025;48.138;11.428;2023-10-09T13:34:08;96092.34;;;21.39;42.23
38225;BME280;24025;48.138;11.428;2023-10-09T13:36:42;96092.59;;;21.25;42.47
38225;BME280;24025;48.138;11.428;2023-10-09T13:39:34;96087.47;;;21.31;42.70
38225;BME280;24025;48.138;11.428;2023-10-09T13:42:10;96082.41;;;21.33;42.49
38225;BME280;24025;48.138;11.428;2023-10-09T13:44:42;96087.53;;;21.27;42.21
38225;BME280;24025;48.138;11.428;2023-10-09T13:47:14;96095.56;;;21.11;42.90
38225;BME280;24025;48.138;11.428;2023-10-09T13:49:50;96106.19;;;21.02;43.25
38225;BME280;24025;48.138;11.428;2023-10-09T13:52:25;96095.78;;;21.00;43.23
38225;BME280;24025;48.138;11.428;2023-10-09T13:54:56;96086.31;;;20.88;43.80
38225;BME280;24025;48.138;11.428;2023-10-09T13:57:29;96070.25;;;20.78;46.49
38225;BME280;24025;48.138;11.428;2023-10-09T14:00:03;96092.41;;;20.73;47.17